< < Back
Terminal Aerodrome Forecast


Current Version              Previous Versions:   1  2  3  4  5  6  7  8  9  

Terminal Aerodrome Forecast

309
FTUS42 KGSP 221700
TAFCLT
TAF
KCLT 221731Z 2218/2318 34012G18KT P6SM FEW060
     FM230000 34009KT P6SM SKC
     FM230600 33004KT P6SM SKC=



Latest METAR

379
SAUS70 KWBC 230300
MTRCLT
METAR KCLT 230252Z 00000KT 10SM CLR 09/03 A3011 RMK AO2 SLP195 T00890033
51010


USA.gov is the U.S. government's official web portal to all federal, state and local government web resources and services.